Time;durP1;ratioP1;P1;durP2;ratioP2;P2;SDS_P1;SDS_P2;PMS_P1;PMS_P2;Temp;Humidity;BMP_temperature;BMP_pressure;BME280_temperature;BME280_humidity;BME280_pressure;Samples;Min_cycle;Max_cycle;Signal;HPM_P1;HPM_P2
2020/12/17 00:00:19;;;;;;;51.72;32.42;;;;;;;;;;5083750;28;20207;-74
2020/12/17 00:02:46;;;;;;;49.95;32.00;;;;;;;;;;5070888;28;20183;-73
2020/12/17 00:05:12;;;;;;;49.80;31.00;;;;;;;;;;5078472;28;20248;-75
2020/12/17 00:07:38;;;;;;;47.83;32.00;;;;;;;;;;5078353;28;20207;-72
2020/12/17 00:10:09;;;;;;;46.58;29.67;;;;;;;;;;5083700;28;20207;-71
2020/12/17 00:12:45;;;;;;;51.25;31.92;;;;;;;;;;5087587;28;20237;-73
2020/12/17 00:15:12;;;;;;;56.83;32.78;;;;;;;;;;5081891;28;20175;-74
2020/12/17 00:17:45;;;;;;;57.85;36.35;;;;;;;;;;5090884;28;20270;-74
2020/12/17 00:20:12;;;;;;;52.92;32.33;;;;;;;;;;5078298;28;20218;-73
2020/12/17 00:22:39;;;;;;;52.70;33.10;;;;;;;;;;5090871;28;20191;-74
2020/12/17 00:25:06;;;;;;;51.78;33.63;;;;;;;;;;5074682;28;20237;-74
2020/12/17 00:27:32;;;;;;;52.78;32.45;;;;;;;;;;5084120;28;20199;-73
2020/12/17 00:29:58;;;;;;;50.80;31.40;;;;;;;;;;5084321;28;20200;-73
2020/12/17 00:32:24;;;;;;;50.78;33.30;;;;;;;;;;5084343;28;20175;-74
2020/12/17 00:34:51;;;;;;;47.10;32.05;;;;;;;;;;5084227;28;20592;-75
2020/12/17 00:37:17;;;;;;;50.80;31.90;;;;;;;;;;5084660;28;20268;-73
2020/12/17 00:39:43;;;;;;;49.25;31.15;;;;;;;;;;5090885;28;20207;-74
2020/12/17 00:42:09;;;;;;;46.03;29.45;;;;;;;;;;5085222;28;20536;-75
2020/12/17 00:44:35;;;;;;;48.08;31.77;;;;;;;;;;5090046;28;20242;-73
2020/12/17 00:47:01;;;;;;;47.67;30.15;;;;;;;;;;5085410;28;20199;-73
2020/12/17 00:49:27;;;;;;;45.15;29.98;;;;;;;;;;5090387;28;20203;-74
2020/12/17 00:52:00;;;;;;;46.90;29.50;;;;;;;;;;5085238;28;20182;-74
2020/12/17 00:54:27;;;;;;;46.47;30.65;;;;;;;;;;5082803;28;20189;-73
2020/12/17 00:56:53;;;;;;;46.00;30.23;;;;;;;;;;5076575;28;20180;-75
2020/12/17 00:59:20;;;;;;;45.80;30.42;;;;;;;;;;5090104;28;20298;-73
2020/12/17 01:01:46;;;;;;;42.25;27.70;;;;;;;;;;5085216;28;20175;-72
2020/12/17 01:04:12;;;;;;;43.08;28.00;;;;;;;;;;5084890;28;20686;-73
2020/12/17 01:06:38;;;;;;;46.53;30.38;;;;;;;;;;5089928;28;20221;-75
2020/12/17 01:09:04;;;;;;;46.78;30.08;;;;;;;;;;5076414;28;20257;-74
2020/12/17 01:11:31;;;;;;;50.05;30.95;;;;;;;;;;5093692;28;20692;-75
2020/12/17 01:13:58;;;;;;;44.22;27.95;;;;;;;;;;5081588;28;20244;-74
2020/12/17 01:16:24;;;;;;;42.33;28.55;;;;;;;;;;5089832;28;20615;-74
2020/12/17 01:18:51;;;;;;;48.30;30.55;;;;;;;;;;5077433;28;20227;-74
2020/12/17 01:21:17;;;;;;;43.28;27.23;;;;;;;;;;5071121;28;20186;-74
2020/12/17 01:23:44;;;;;;;46.28;29.98;;;;;;;;;;5089796;28;20188;-73
2020/12/17 01:26:10;;;;;;;47.17;28.77;;;;;;;;;;5071318;28;20211;-75
2020/12/17 01:28:37;;;;;;;46.40;28.77;;;;;;;;;;5079574;28;20561;-76
2020/12/17 01:31:08;;;;;;;51.22;30.10;;;;;;;;;;5082181;28;20207;-75
2020/12/17 01:33:34;;;;;;;47.53;29.65;;;;;;;;;;5077716;28;20179;-75
2020/12/17 01:36:04;;;;;;;44.50;28.27;;;;;;;;;;5069893;28;20187;-74
2020/12/17 01:38:30;;;;;;;43.53;27.60;;;;;;;;;;5076679;28;20183;-75
2020/12/17 01:40:56;;;;;;;50.95;29.00;;;;;;;;;;5089944;28;20175;-75
2020/12/17 01:43:23;;;;;;;44.85;28.67;;;;;;;;;;5081962;28;20264;-75
2020/12/17 01:45:49;;;;;;;42.10;26.67;;;;;;;;;;5069115;28;20192;-74
2020/12/17 01:48:18;;;;;;;44.20;28.60;;;;;;;;;;5072504;28;20266;-74
2020/12/17 01:50:47;;;;;;;45.30;28.83;;;;;;;;;;5074810;28;20159;-74
2020/12/17 01:53:13;;;;;;;45.03;28.73;;;;;;;;;;5091070;28;20494;-75
2020/12/17 01:55:40;;;;;;;41.63;27.80;;;;;;;;;;5093227;28;20661;-74
2020/12/17 01:58:07;;;;;;;44.72;28.23;;;;;;;;;;5093031;28;20171;-73
2020/12/17 02:00:37;;;;;;;50.85;29.20;;;;;;;;;;5086620;28;20191;-74
2020/12/17 02:03:04;;;;;;;51.28;28.83;;;;;;;;;;5072991;28;20483;-74
2020/12/17 02:05:31;;;;;;;48.15;30.25;;;;;;;;;;5072520;28;20179;-75
2020/12/17 02:08:01;;;;;;;43.80;27.45;;;;;;;;;;5072572;28;20188;-74
2020/12/17 02:10:29;;;;;;;42.97;27.45;;;;;;;;;;5087358;28;20248;-73
2020/12/17 02:12:55;;;;;;;41.58;26.40;;;;;;;;;;5093019;28;20171;-74
2020/12/17 02:15:21;;;;;;;44.08;28.52;;;;;;;;;;5091372;28;20525;-74
2020/12/17 02:17:48;;;;;;;46.35;28.33;;;;;;;;;;5082108;28;20187;-74
2020/12/17 02:20:15;;;;;;;43.63;27.67;;;;;;;;;;5080084;28;20197;-72
2020/12/17 02:22:41;;;;;;;43.40;26.13;;;;;;;;;;5092729;28;20172;-73
2020/12/17 02:25:09;;;;;;;38.30;25.02;;;;;;;;;;5092321;28;20179;-75
2020/12/17 02:27:35;;;;;;;44.88;28.52;;;;;;;;;;5092797;28;20589;-73
2020/12/17 02:30:01;;;;;;;42.47;27.70;;;;;;;;;;5091779;28;20253;-73
2020/12/17 02:32:27;;;;;;;41.55;26.40;;;;;;;;;;5092392;28;20199;-73
2020/12/17 02:34:53;;;;;;;41.78;27.05;;;;;;;;;;5092178;28;20176;-72
2020/12/17 02:37:19;;;;;;;45.08;28.08;;;;;;;;;;5092469;28;20228;-73
2020/12/17 02:39:45;;;;;;;41.33;26.52;;;;;;;;;;5082393;28;20593;-73
2020/12/17 02:42:11;;;;;;;41.60;27.35;;;;;;;;;;5093681;28;20167;-74
2020/12/17 02:44:37;;;;;;;40.38;26.65;;;;;;;;;;5092305;28;20240;-72
2020/12/17 02:47:03;;;;;;;38.33;26.58;;;;;;;;;;5092599;28;20203;-73
2020/12/17 02:49:30;;;;;;;36.33;24.80;;;;;;;;;;5091276;28;20187;-74
2020/12/17 02:51:56;;;;;;;42.95;26.58;;;;;;;;;;5088693;28;20182;-73
2020/12/17 02:54:22;;;;;;;35.40;23.73;;;;;;;;;;5095712;28;20532;-74
2020/12/17 02:56:48;;;;;;;37.95;25.50;;;;;;;;;;5091617;28;20184;-73
2020/12/17 02:59:14;;;;;;;38.47;24.60;;;;;;;;;;5076854;28;20199;-74
2020/12/17 03:01:40;;;;;;;36.83;26.33;;;;;;;;;;5091514;28;20219;-73
2020/12/17 03:04:06;;;;;;;40.45;26.05;;;;;;;;;;5094124;28;20187;-72
2020/12/17 03:06:32;;;;;;;38.70;25.30;;;;;;;;;;5094622;28;20742;-74
2020/12/17 03:08:58;;;;;;;38.47;26.15;;;;;;;;;;5085257;28;20223;-74
2020/12/17 03:11:24;;;;;;;38.30;26.35;;;;;;;;;;5075714;28;20525;-76
2020/12/17 03:13:51;;;;;;;40.85;26.35;;;;;;;;;;5087138;28;20199;-75
2020/12/17 03:16:18;;;;;;;34.20;23.38;;;;;;;;;;5095685;28;20592;-74
2020/12/17 03:18:44;;;;;;;36.20;25.42;;;;;;;;;;5082472;28;20742;-72
2020/12/17 03:21:10;;;;;;;33.47;23.00;;;;;;;;;;5093809;28;20206;-74
2020/12/17 03:23:36;;;;;;;37.00;25.17;;;;;;;;;;5095432;28;20517;-74
2020/12/17 03:26:02;;;;;;;34.10;23.70;;;;;;;;;;5089394;28;20207;-73
2020/12/17 03:28:28;;;;;;;36.45;24.80;;;;;;;;;;5075439;28;20545;-74
2020/12/17 03:30:54;;;;;;;33.63;22.88;;;;;;;;;;5086753;28;20245;-73
2020/12/17 03:33:20;;;;;;;36.53;24.40;;;;;;;;;;5095743;28;20186;-73
2020/12/17 03:35:46;;;;;;;35.85;23.83;;;;;;;;;;5075751;28;20179;-74
2020/12/17 03:38:12;;;;;;;33.63;22.95;;;;;;;;;;5093774;28;20237;-72
2020/12/17 03:40:38;;;;;;;35.08;23.60;;;;;;;;;;5087038;28;20287;-74
2020/12/17 03:43:04;;;;;;;33.13;23.50;;;;;;;;;;5076183;28;20526;-74
2020/12/17 03:45:30;;;;;;;36.83;23.95;;;;;;;;;;5094830;28;20504;-73
2020/12/17 03:47:56;;;;;;;34.92;24.23;;;;;;;;;;5083151;28;20195;-73
2020/12/17 03:50:22;;;;;;;35.85;23.90;;;;;;;;;;5075884;28;20184;-74
2020/12/17 03:52:48;;;;;;;37.42;23.75;;;;;;;;;;5094860;28;20184;-70
2020/12/17 03:55:15;;;;;;;34.97;23.60;;;;;;;;;;5094794;28;20168;-72
2020/12/17 03:57:41;;;;;;;36.65;24.10;;;;;;;;;;5082528;28;20609;-72
2020/12/17 04:00:07;;;;;;;30.27;21.33;;;;;;;;;;5078125;28;20695;-73
2020/12/17 04:02:33;;;;;;;30.77;22.70;;;;;;;;;;5094743;28;20183;-74
2020/12/17 04:04:59;;;;;;;35.78;24.30;;;;;;;;;;5088141;28;20190;-73
2020/12/17 04:07:25;;;;;;;33.22;22.55;;;;;;;;;;5094761;28;20199;-73
2020/12/17 04:09:51;;;;;;;35.05;23.25;;;;;;;;;;5081185;28;20599;-72
2020/12/17 04:12:17;;;;;;;36.88;24.88;;;;;;;;;;5074719;28;20203;-71
2020/12/17 04:14:43;;;;;;;36.25;22.80;;;;;;;;;;5091447;28;20168;-74
2020/12/17 04:17:09;;;;;;;35.00;23.70;;;;;;;;;;5081375;28;20181;-73
2020/12/17 04:19:35;;;;;;;33.22;22.88;;;;;;;;;;5094626;28;20191;-73
2020/12/17 04:22:01;;;;;;;34.60;23.80;;;;;;;;;;5091590;28;20179;-74
2020/12/17 04:24:29;;;;;;;33.03;22.38;;;;;;;;;;5090522;28;20180;-73
2020/12/17 04:26:56;;;;;;;36.63;24.90;;;;;;;;;;5088082;28;20203;-72
2020/12/17 04:29:23;;;;;;;33.70;24.25;;;;;;;;;;5092061;28;20286;-72
2020/12/17 04:31:49;;;;;;;33.47;23.13;;;;;;;;;;5094807;28;20191;-74
2020/12/17 04:34:15;;;;;;;36.95;24.67;;;;;;;;;;5093474;28;20529;-73
2020/12/17 04:36:42;;;;;;;35.30;23.13;;;;;;;;;;5087717;28;20179;-74
2020/12/17 04:39:08;;;;;;;35.97;23.75;;;;;;;;;;5084199;28;20305;-73
2020/12/17 04:41:34;;;;;;;33.85;23.92;;;;;;;;;;5078271;28;20183;-75
2020/12/17 04:44:00;;;;;;;34.40;23.48;;;;;;;;;;5093921;28;20175;-74
2020/12/17 04:46:27;;;;;;;35.20;23.55;;;;;;;;;;5093970;28;20194;-75
2020/12/17 04:48:54;;;;;;;33.97;23.23;;;;;;;;;;5081163;28;20295;-73
2020/12/17 04:51:21;;;;;;;36.33;23.95;;;;;;;;;;5078226;28;20545;-72
2020/12/17 04:53:48;;;;;;;34.58;22.88;;;;;;;;;;5085572;28;20230;-72
2020/12/17 04:56:15;;;;;;;37.25;23.95;;;;;;;;;;5093856;28;20215;-71
2020/12/17 04:58:46;;;;;;;31.98;22.08;;;;;;;;;;5082303;28;20200;-74
2020/12/17 05:01:13;;;;;;;34.88;23.42;;;;;;;;;;5089197;28;20257;-74
2020/12/17 05:03:40;;;;;;;36.72;23.35;;;;;;;;;;5093726;28;20547;-72
2020/12/17 05:06:07;;;;;;;36.83;25.17;;;;;;;;;;5091085;28;20192;-75
2020/12/17 05:08:33;;;;;;;37.33;25.80;;;;;;;;;;5086303;28;20564;-72
2020/12/17 05:10:59;;;;;;;34.65;22.98;;;;;;;;;;5098107;28;20186;-74
2020/12/17 05:13:25;;;;;;;34.28;23.52;;;;;;;;;;5088505;28;20178;-74
2020/12/17 05:15:51;;;;;;;37.67;23.88;;;;;;;;;;5092825;28;20176;-73
2020/12/17 05:18:17;;;;;;;37.90;25.05;;;;;;;;;;5079053;28;20180;-72
2020/12/17 05:20:44;;;;;;;35.10;24.55;;;;;;;;;;5079668;28;20169;-72
2020/12/17 05:23:11;;;;;;;38.90;25.77;;;;;;;;;;5071779;28;20187;-74
2020/12/17 05:25:39;;;;;;;35.22;24.55;;;;;;;;;;5087984;28;20186;-74
2020/12/17 05:28:05;;;;;;;36.10;24.45;;;;;;;;;;5093661;28;20509;-74
2020/12/17 05:30:35;;;;;;;45.10;24.23;;;;;;;;;;5083574;28;20225;-71
2020/12/17 05:33:01;;;;;;;36.88;25.02;;;;;;;;;;5092847;28;20179;-72
2020/12/17 05:35:31;;;;;;;34.67;23.55;;;;;;;;;;5092708;28;20237;-74
2020/12/17 05:37:59;;;;;;;35.28;24.33;;;;;;;;;;5079423;28;20585;-75
2020/12/17 05:40:25;;;;;;;36.45;23.40;;;;;;;;;;5080762;28;20564;-75
2020/12/17 05:42:51;;;;;;;41.15;24.80;;;;;;;;;;5083746;28;20584;-74
2020/12/17 05:45:27;;;;;;;36.10;24.63;;;;;;;;;;5085954;28;20179;-73
2020/12/17 05:48:11;;;;;;;35.03;22.60;;;;;;;;;;5090817;28;20214;-74
2020/12/17 05:50:54;;;;;;;36.28;23.40;;;;;;;;;;5093072;28;20191;-73
2020/12/17 05:53:21;;;;;;;32.38;22.35;;;;;;;;;;5093256;28;20198;-73
2020/12/17 05:55:47;;;;;;;31.48;22.50;;;;;;;;;;5092638;28;20574;-74
2020/12/17 05:58:13;;;;;;;33.15;22.70;;;;;;;;;;5092900;28;20172;-74
2020/12/17 06:00:40;;;;;;;36.45;22.02;;;;;;;;;;5086652;28;20210;-73
2020/12/17 06:03:12;;;;;;;35.05;23.58;;;;;;;;;;5091291;28;20172;-75
2020/12/17 06:05:44;;;;;;;33.58;22.27;;;;;;;;;;5091257;28;20194;-74
2020/12/17 06:08:20;;;;;;;33.22;22.83;;;;;;;;;;5092024;28;20199;-75
2020/12/17 06:10:48;;;;;;;34.90;24.00;;;;;;;;;;5097008;28;20701;-73
2020/12/17 06:13:15;;;;;;;33.55;22.20;;;;;;;;;;5092630;28;20177;-73
2020/12/17 06:15:43;;;;;;;36.80;22.67;;;;;;;;;;5090745;28;20168;-72
2020/12/17 06:18:11;;;;;;;33.13;22.63;;;;;;;;;;5091196;28;20266;-73
2020/12/17 06:20:37;;;;;;;33.50;22.95;;;;;;;;;;5091325;28;20244;-74
2020/12/17 06:23:05;;;;;;;31.00;22.80;;;;;;;;;;5095520;28;20229;-73
2020/12/17 06:25:32;;;;;;;32.67;23.27;;;;;;;;;;5096347;28;20183;-73
2020/12/17 06:27:58;;;;;;;35.15;22.95;;;;;;;;;;5096560;28;20256;-72
2020/12/17 06:30:31;;;;;;;32.33;22.00;;;;;;;;;;5096615;28;20196;-73
2020/12/17 06:32:58;;;;;;;33.70;23.38;;;;;;;;;;5095207;28;20274;-72
2020/12/17 06:35:42;;;;;;;31.30;20.58;;;;;;;;;;5095434;28;20171;-73
2020/12/17 06:38:12;;;;;;;32.10;22.00;;;;;;;;;;5095394;28;20550;-74
2020/12/17 06:40:39;;;;;;;30.58;22.13;;;;;;;;;;5087673;28;20196;-73
2020/12/17 06:43:11;;;;;;;34.05;22.90;;;;;;;;;;5094125;28;20168;-75
2020/12/17 06:45:37;;;;;;;29.90;20.95;;;;;;;;;;5094799;28;20680;-73
2020/12/17 06:48:22;;;;;;;31.55;22.55;;;;;;;;;;5095833;28;20203;-72
2020/12/17 06:50:48;;;;;;;28.27;20.80;;;;;;;;;;5096577;28;20171;-75
2020/12/17 06:53:16;;;;;;;30.30;21.00;;;;;;;;;;5096605;28;20262;-73
2020/12/17 06:55:45;;;;;;;32.38;22.55;;;;;;;;;;5095654;28;20175;-73
2020/12/17 06:58:21;;;;;;;29.73;21.13;;;;;;;;;;5096290;28;20263;-74
2020/12/17 07:00:48;;;;;;;35.17;26.55;;;;;;;;;;5079417;28;20597;-73
2020/12/17 07:03:33;;;;;;;94.28;65.82;;;;;;;;;;5096440;28;20517;-74
2020/12/17 07:06:12;;;;;;;35.28;25.15;;;;;;;;;;5095910;28;20281;-74
2020/12/17 07:08:38;;;;;;;32.90;23.48;;;;;;;;;;5094709;28;20203;-74
2020/12/17 07:11:04;;;;;;;33.50;22.25;;;;;;;;;;5105320;28;20179;-75
2020/12/17 07:13:40;;;;;;;30.98;22.17;;;;;;;;;;5094768;28;20179;-74
2020/12/17 07:16:07;;;;;;;31.63;22.60;;;;;;;;;;5095873;28;20186;-73
2020/12/17 07:18:33;;;;;;;32.53;22.48;;;;;;;;;;5092418;28;20194;-74
2020/12/17 07:21:06;;;;;;;32.03;22.67;;;;;;;;;;5089811;28;20172;-74
2020/12/17 07:23:33;;;;;;;27.10;20.75;;;;;;;;;;5095615;28;20578;-73
2020/12/17 07:26:04;;;;;;;29.45;21.98;;;;;;;;;;5095307;28;20313;-73
2020/12/17 07:28:31;;;;;;;30.35;21.63;;;;;;;;;;5095086;28;20179;-72
2020/12/17 07:30:57;;;;;;;28.63;20.60;;;;;;;;;;5095441;28;20171;-74
2020/12/17 07:33:38;;;;;;;32.63;23.38;;;;;;;;;;5094202;28;20171;-71
2020/12/17 07:36:05;;;;;;;29.15;23.33;;;;;;;;;;5094103;28;20184;-73
2020/12/17 07:38:31;;;;;;;30.20;20.70;;;;;;;;;;5094898;28;20175;-74
2020/12/17 07:40:57;;;;;;;28.70;21.08;;;;;;;;;;5095788;28;20236;-73
2020/12/17 07:43:24;;;;;;;28.27;21.45;;;;;;;;;;5095300;28;20176;-75
2020/12/17 07:45:50;;;;;;;30.80;22.38;;;;;;;;;;5080060;28;20234;-72
2020/12/17 07:48:35;;;;;;;29.02;20.85;;;;;;;;;;5083343;28;20176;-74
2020/12/17 07:51:05;;;;;;;30.27;22.23;;;;;;;;;;5083167;28;20271;-74
2020/12/17 07:53:32;;;;;;;29.63;20.92;;;;;;;;;;5089575;28;20540;-73
2020/12/17 07:55:58;;;;;;;26.52;20.52;;;;;;;;;;5088403;28;20188;-75
2020/12/17 07:58:24;;;;;;;28.15;20.90;;;;;;;;;;5076776;28;20549;-75
2020/12/17 08:00:52;;;;;;;26.63;20.05;;;;;;;;;;5088382;28;20176;-76
2020/12/17 08:03:18;;;;;;;30.15;21.02;;;;;;;;;;5091227;28;20186;-76
2020/12/17 08:05:45;;;;;;;25.40;19.70;;;;;;;;;;5090791;28;20874;-76
2020/12/17 08:08:14;;;;;;;25.33;20.08;;;;;;;;;;5088618;28;20203;-73
2020/12/17 08:10:40;;;;;;;27.52;17.95;;;;;;;;;;5098152;28;20227;-73
2020/12/17 08:13:06;;;;;;;23.90;17.88;;;;;;;;;;5090901;28;20236;-76
2020/12/17 08:15:33;;;;;;;23.90;18.10;;;;;;;;;;5088269;28;20206;-76
2020/12/17 08:18:00;;;;;;;26.50;19.25;;;;;;;;;;5090608;28;20311;-74
2020/12/17 08:20:26;;;;;;;25.45;19.65;;;;;;;;;;5089682;28;20821;-75
2020/12/17 08:22:55;;;;;;;24.52;18.75;;;;;;;;;;5090798;28;20324;-72
2020/12/17 08:25:22;;;;;;;25.98;18.58;;;;;;;;;;5090060;28;20272;-74
2020/12/17 08:27:51;;;;;;;24.95;17.85;;;;;;;;;;5086051;28;20687;-74
2020/12/17 08:30:17;;;;;;;28.02;18.17;;;;;;;;;;5090334;28;20203;-74
2020/12/17 08:33:01;;;;;;;25.02;18.73;;;;;;;;;;5087854;28;20175;-74
2020/12/17 08:35:28;;;;;;;24.35;18.23;;;;;;;;;;5090099;28;20187;-75
2020/12/17 08:37:54;;;;;;;25.13;18.50;;;;;;;;;;5090441;28;20644;-75
2020/12/17 08:40:27;;;;;;;24.83;18.02;;;;;;;;;;5089928;28;20575;-75
2020/12/17 08:42:56;;;;;;;22.83;18.25;;;;;;;;;;5090426;28;20213;-74
2020/12/17 08:45:24;;;;;;;24.40;17.17;;;;;;;;;;5078737;28;20214;-76
2020/12/17 08:47:51;;;;;;;23.70;18.48;;;;;;;;;;5089842;28;20207;-76
2020/12/17 08:50:18;;;;;;;23.30;17.02;;;;;;;;;;5090406;28;20195;-74
2020/12/17 08:52:44;;;;;;;22.50;17.92;;;;;;;;;;5090210;28;20509;-73
2020/12/17 08:55:11;;;;;;;23.25;17.73;;;;;;;;;;5071039;28;20183;-76
2020/12/17 08:57:38;;;;;;;18.83;16.27;;;;;;;;;;5081274;28;20278;-75
2020/12/17 09:00:06;;;;;;;23.42;17.95;;;;;;;;;;5076503;28;20274;-74
2020/12/17 09:02:32;;;;;;;23.65;17.77;;;;;;;;;;5090125;28;20183;-75
2020/12/17 09:04:59;;;;;;;22.38;17.20;;;;;;;;;;5070378;28;20180;-76
2020/12/17 09:07:26;;;;;;;22.38;18.88;;;;;;;;;;5077282;28;20210;-72
2020/12/17 09:09:52;;;;;;;21.88;17.95;;;;;;;;;;5073329;28;20200;-73
2020/12/17 09:12:28;;;;;;;20.27;17.15;;;;;;;;;;5082472;28;20571;-74
2020/12/17 09:14:54;;;;;;;26.08;17.25;;;;;;;;;;5076970;28;20191;-74
2020/12/17 09:17:20;;;;;;;21.45;17.98;;;;;;;;;;5075571;28;20187;-73
2020/12/17 09:19:47;;;;;;;21.17;17.17;;;;;;;;;;5069999;28;20215;-73
2020/12/17 09:22:22;;;;;;;20.33;16.65;;;;;;;;;;5081875;28;20187;-74
2020/12/17 09:24:49;;;;;;;19.23;16.17;;;;;;;;;;5069250;28;20214;-72
2020/12/17 09:27:26;;;;;;;23.90;17.83;;;;;;;;;;5082702;28;20679;-73
2020/12/17 09:30:01;;;;;;;19.67;16.42;;;;;;;;;;5069376;28;20207;-73
2020/12/17 09:32:28;;;;;;;22.95;17.17;;;;;;;;;;5069183;28;20233;-73
2020/12/17 09:35:04;;;;;;;19.42;16.20;;;;;;;;;;5068895;28;20180;-74
2020/12/17 09:37:30;;;;;;;19.08;15.57;;;;;;;;;;5085644;28;20182;-73
2020/12/17 09:39:56;;;;;;;23.10;16.77;;;;;;;;;;5084818;28;20640;-73
2020/12/17 09:42:23;;;;;;;20.50;16.95;;;;;;;;;;5089113;28;20244;-71
2020/12/17 09:44:50;;;;;;;19.38;16.27;;;;;;;;;;5087525;28;20306;-73
2020/12/17 09:47:29;;;;;;;18.80;16.70;;;;;;;;;;5073666;28;20232;-71
2020/12/17 09:49:55;;;;;;;23.92;18.63;;;;;;;;;;5088581;28;20198;-72
2020/12/17 09:52:26;;;;;;;20.75;17.20;;;;;;;;;;5077644;28;20187;-74
2020/12/17 09:54:52;;;;;;;19.92;16.45;;;;;;;;;;5089124;28;20175;-72
2020/12/17 09:57:18;;;;;;;20.35;16.95;;;;;;;;;;5088769;28;20224;-73
2020/12/17 09:59:45;;;;;;;23.13;17.08;;;;;;;;;;5087296;28;20742;-71
2020/12/17 10:02:13;;;;;;;21.42;17.83;;;;;;;;;;5085473;28;20270;-72
2020/12/17 10:04:40;;;;;;;24.10;18.05;;;;;;;;;;5077988;28;20176;-74
2020/12/17 10:07:06;;;;;;;22.90;17.92;;;;;;;;;;5088612;28;20559;-72
2020/12/17 10:09:32;;;;;;;22.95;18.33;;;;;;;;;;5090523;28;20271;-73
2020/12/17 10:11:58;;;;;;;24.10;16.92;;;;;;;;;;5082908;28;20175;-71
2020/12/17 10:14:27;;;;;;;23.63;15.98;;;;;;;;;;5077422;28;20180;-72
2020/12/17 10:16:56;;;;;;;24.02;17.92;;;;;;;;;;5082462;28;20183;-74
2020/12/17 10:19:23;;;;;;;20.40;17.20;;;;;;;;;;5088949;28;20202;-73
2020/12/17 10:21:49;;;;;;;23.23;18.55;;;;;;;;;;5088868;28;20664;-73
2020/12/17 10:24:15;;;;;;;25.65;18.73;;;;;;;;;;5088162;28;20595;-71
2020/12/17 10:26:42;;;;;;;23.80;18.08;;;;;;;;;;5075387;28;20195;-72
2020/12/17 10:29:08;;;;;;;20.45;17.50;;;;;;;;;;5088607;28;20187;-72
2020/12/17 10:31:34;;;;;;;26.10;19.27;;;;;;;;;;5072116;28;20180;-71
2020/12/17 10:34:01;;;;;;;25.20;20.17;;;;;;;;;;5088332;28;20218;-72
2020/12/17 10:36:27;;;;;;;20.85;17.42;;;;;;;;;;5073010;28;20192;-73
2020/12/17 10:38:53;;;;;;;23.30;17.50;;;;;;;;;;5075758;28;20231;-72
2020/12/17 10:41:25;;;;;;;21.45;17.05;;;;;;;;;;5087251;28;20195;-70
2020/12/17 10:43:51;;;;;;;25.83;17.08;;;;;;;;;;5088515;28;20233;-73
2020/12/17 10:46:17;;;;;;;29.35;19.83;;;;;;;;;;5071751;28;20200;-72
2020/12/17 10:48:44;;;;;;;21.58;17.33;;;;;;;;;;5074920;28;20199;-72
2020/12/17 10:51:12;;;;;;;21.48;18.20;;;;;;;;;;5071695;28;20641;-72
2020/12/17 10:53:38;;;;;;;24.08;19.05;;;;;;;;;;5071432;28;20537;-73
2020/12/17 10:56:06;;;;;;;23.92;19.10;;;;;;;;;;5068345;28;20580;-73
2020/12/17 10:58:32;;;;;;;22.58;18.67;;;;;;;;;;5080781;28;20202;-71
2020/12/17 11:00:58;;;;;;;30.33;21.83;;;;;;;;;;5088541;28;20184;-72
2020/12/17 11:03:24;;;;;;;25.98;19.20;;;;;;;;;;5088582;28;20192;-71
2020/12/17 11:05:50;;;;;;;22.30;18.35;;;;;;;;;;5088588;28;20217;-72
2020/12/17 11:08:16;;;;;;;23.00;17.50;;;;;;;;;;5079165;28;20304;-73
2020/12/17 11:10:42;;;;;;;20.38;17.45;;;;;;;;;;5097307;28;20186;-73
2020/12/17 11:13:08;;;;;;;22.17;17.80;;;;;;;;;;5078893;28;20179;-72
2020/12/17 11:15:34;;;;;;;22.70;18.80;;;;;;;;;;5092102;28;20183;-73
2020/12/17 11:18:00;;;;;;;22.00;17.83;;;;;;;;;;5092152;28;20969;-71
2020/12/17 11:20:26;;;;;;;21.13;17.27;;;;;;;;;;5078936;28;20627;-72
2020/12/17 11:22:52;;;;;;;24.20;20.17;;;;;;;;;;5091933;28;20260;-72
2020/12/17 11:25:19;;;;;;;23.35;19.23;;;;;;;;;;5077706;28;20671;-73
2020/12/17 11:27:45;;;;;;;23.08;18.70;;;;;;;;;;5092088;28;20199;-71
2020/12/17 11:30:11;;;;;;;22.92;18.60;;;;;;;;;;5077281;28;20227;-71
2020/12/17 11:32:37;;;;;;;22.80;19.20;;;;;;;;;;5075285;28;20199;-73
2020/12/17 11:35:06;;;;;;;22.52;18.25;;;;;;;;;;5071683;28;20222;-71
2020/12/17 11:37:33;;;;;;;23.88;18.88;;;;;;;;;;5089083;28;20191;-73
2020/12/17 11:39:59;;;;;;;26.45;19.63;;;;;;;;;;5091095;28;20264;-73
2020/12/17 11:42:25;;;;;;;25.52;20.13;;;;;;;;;;5091579;28;20283;-73
2020/12/17 11:44:51;;;;;;;24.85;19.45;;;;;;;;;;5082504;28;20183;-73
2020/12/17 11:47:17;;;;;;;26.02;20.63;;;;;;;;;;5088655;28;20211;-73
2020/12/17 11:49:43;;;;;;;21.63;18.65;;;;;;;;;;5089433;28;20190;-72
2020/12/17 11:52:09;;;;;;;24.63;20.60;;;;;;;;;;5071345;28;20180;-72
2020/12/17 11:54:35;;;;;;;25.75;20.20;;;;;;;;;;5082434;28;20644;-72
2020/12/17 11:57:01;;;;;;;24.70;20.73;;;;;;;;;;5071296;28;20188;-72
2020/12/17 11:59:29;;;;;;;28.20;20.55;;;;;;;;;;5081152;28;20203;-74
2020/12/17 12:01:55;;;;;;;23.77;19.67;;;;;;;;;;5071130;28;20267;-75
2020/12/17 12:04:22;;;;;;;21.33;18.55;;;;;;;;;;5080762;28;20187;-73
2020/12/17 12:06:49;;;;;;;23.88;20.27;;;;;;;;;;5082091;28;20918;-74
2020/12/17 12:09:18;;;;;;;24.05;19.30;;;;;;;;;;5085868;28;20690;-74
2020/12/17 12:11:45;;;;;;;21.73;18.63;;;;;;;;;;5076430;28;20645;-72
2020/12/17 12:14:12;;;;;;;21.88;17.27;;;;;;;;;;5085722;28;20182;-71
2020/12/17 12:16:38;;;;;;;22.60;17.13;;;;;;;;;;5090586;28;20218;-72
2020/12/17 12:19:04;;;;;;;23.05;19.27;;;;;;;;;;5086646;28;20208;-74
2020/12/17 12:21:30;;;;;;;22.90;18.95;;;;;;;;;;5070775;28;20176;-73
2020/12/17 12:23:56;;;;;;;22.77;19.00;;;;;;;;;;5090202;28;20188;-74
2020/12/17 12:26:22;;;;;;;22.38;17.67;;;;;;;;;;5090074;28;20195;-73
2020/12/17 12:28:48;;;;;;;23.17;18.25;;;;;;;;;;5090737;28;20195;-72
2020/12/17 12:31:15;;;;;;;21.80;18.15;;;;;;;;;;5090197;28;20183;-71
2020/12/17 12:33:41;;;;;;;21.58;19.25;;;;;;;;;;5090108;28;20853;-72
2020/12/17 12:36:09;;;;;;;19.83;17.40;;;;;;;;;;5090508;28;20262;-71
2020/12/17 12:38:35;;;;;;;19.40;17.25;;;;;;;;;;5090252;28;20180;-73
2020/12/17 12:41:01;;;;;;;16.33;14.63;;;;;;;;;;5090610;28;20568;-72
2020/12/17 12:43:27;;;;;;;15.63;14.02;;;;;;;;;;5088536;28;20525;-74
2020/12/17 12:45:53;;;;;;;13.68;12.38;;;;;;;;;;5078743;28;20180;-73
2020/12/17 12:48:20;;;;;;;16.80;15.18;;;;;;;;;;5087078;28;20197;-72
2020/12/17 12:50:49;;;;;;;12.45;11.25;;;;;;;;;;5089889;28;20188;-75
2020/12/17 12:53:15;;;;;;;10.85;9.60;;;;;;;;;;5089317;28;20176;-74
2020/12/17 12:55:45;;;;;;;9.45;8.60;;;;;;;;;;5081764;28;20701;-72
2020/12/17 12:58:11;;;;;;;10.63;8.85;;;;;;;;;;5089763;28;20205;-73
2020/12/17 13:00:37;;;;;;;9.80;8.90;;;;;;;;;;5089773;28;20206;-72
2020/12/17 13:03:03;;;;;;;8.65;7.88;;;;;;;;;;5083263;28;20172;-73
2020/12/17 13:05:29;;;;;;;8.60;7.80;;;;;;;;;;5085451;28;20281;-75
2020/12/17 13:07:55;;;;;;;8.30;7.60;;;;;;;;;;5085886;28;20289;-75
2020/12/17 13:10:21;;;;;;;6.72;5.90;;;;;;;;;;5087485;28;20927;-72
2020/12/17 13:12:47;;;;;;;6.15;5.30;;;;;;;;;;5080422;28;20633;-76
2020/12/17 13:15:13;;;;;;;5.70;5.20;;;;;;;;;;5082671;28;20184;-73
2020/12/17 13:17:39;;;;;;;6.25;5.75;;;;;;;;;;5087524;28;20187;-73
2020/12/17 13:20:05;;;;;;;6.10;5.50;;;;;;;;;;5080936;28;20203;-73
2020/12/17 13:22:31;;;;;;;5.65;4.90;;;;;;;;;;5085374;28;20715;-73
2020/12/17 13:24:57;;;;;;;7.32;5.22;;;;;;;;;;5079379;28;20206;-74
2020/12/17 13:27:26;;;;;;;5.93;5.43;;;;;;;;;;5088329;28;20336;-73
2020/12/17 13:29:52;;;;;;;5.10;4.60;;;;;;;;;;5089072;28;20198;-72
2020/12/17 13:32:18;;;;;;;7.88;6.65;;;;;;;;;;5081462;28;20254;-74
2020/12/17 13:34:44;;;;;;;5.90;4.97;;;;;;;;;;5082886;28;20183;-73
2020/12/17 13:37:10;;;;;;;5.57;5.18;;;;;;;;;;5089021;28;20183;-74
2020/12/17 13:39:36;;;;;;;6.40;5.80;;;;;;;;;;5088953;28;20720;-73
2020/12/17 13:42:03;;;;;;;5.75;5.35;;;;;;;;;;5075627;28;20242;-73
2020/12/17 13:44:29;;;;;;;6.28;5.78;;;;;;;;;;5088326;28;20191;-73
2020/12/17 13:46:55;;;;;;;5.93;5.32;;;;;;;;;;5073565;28;20196;-73
2020/12/17 13:49:22;;;;;;;5.88;5.38;;;;;;;;;;5082953;28;20206;-73
2020/12/17 13:51:48;;;;;;;5.03;4.63;;;;;;;;;;5089054;28;20273;-74
2020/12/17 13:54:14;;;;;;;5.40;5.00;;;;;;;;;;5088926;28;20552;-73
2020/12/17 13:56:41;;;;;;;5.10;4.50;;;;;;;;;;5080712;28;20521;-72
2020/12/17 13:59:08;;;;;;;5.40;4.93;;;;;;;;;;5082625;28;20732;-72
2020/12/17 14:01:34;;;;;;;5.53;5.00;;;;;;;;;;5089078;28;20206;-73
2020/12/17 14:04:00;;;;;;;5.38;4.85;;;;;;;;;;5087234;28;20183;-72
2020/12/17 14:06:28;;;;;;;5.53;5.03;;;;;;;;;;5088104;28;20206;-75
2020/12/17 14:08:54;;;;;;;5.65;5.15;;;;;;;;;;5081531;28;20254;-74
2020/12/17 14:11:20;;;;;;;6.47;4.60;;;;;;;;;;5093436;28;20544;-74
2020/12/17 14:13:46;;;;;;;5.80;4.20;;;;;;;;;;5079936;28;20262;-72
2020/12/17 14:16:13;;;;;;;4.45;4.05;;;;;;;;;;5075090;28;20194;-73
2020/12/17 14:18:42;;;;;;;4.75;4.35;;;;;;;;;;5074692;28;20274;-74